createdAt,value
2016-05-25T00:00:00.578Z,74.09
2016-05-25T00:01:00.581Z,74.28
2016-05-25T00:02:00.677Z,74.28
2016-05-25T00:03:01.008Z,74.19
2016-05-25T00:04:00.621Z,74.28
2016-05-25T00:05:00.952Z,74.28
2016-05-25T00:06:00.470Z,74.19
2016-05-25T00:07:00.457Z,74.19
2016-05-25T00:08:00.428Z,73.9
2016-05-25T00:09:00.416Z,73.71
2016-05-25T00:10:00.433Z,73.71
2016-05-25T00:11:01.046Z,73.9
2016-05-25T00:12:00.345Z,73.9
2016-05-25T00:13:00.176Z,73.99
2016-05-25T00:14:00.413Z,73.9
2016-05-25T00:15:00.446Z,73.9
2016-05-25T00:16:01.372Z,73.9
2016-05-25T00:17:00.734Z,73.9
2016-05-25T00:18:00.252Z,73.9
2016-05-25T00:19:01.770Z,74.28
2016-05-25T00:20:01.414Z,73.9
2016-05-25T00:21:01.260Z,73.9
2016-05-25T00:22:01.481Z,73.9
2016-05-25T00:23:01.828Z,73.71
2016-05-25T00:24:01.518Z,73.9
2016-05-25T00:25:01.553Z,73.9
2016-05-25T00:26:00.914Z,74.09
2016-05-25T00:27:01.433Z,73.99
2016-05-25T00:28:01.451Z,73.9
2016-05-25T00:29:01.329Z,73.9
2016-05-25T00:30:01.519Z,73.9
2016-05-25T00:31:01.694Z,73.8
2016-05-25T00:32:01.508Z,73.8
2016-05-25T00:33:01.339Z,73.8
2016-05-25T00:34:00.842Z,73.71
2016-05-25T00:35:01.110Z,74.09
2016-05-25T00:36:00.582Z,74.19
2016-05-25T00:37:01.005Z,74.28
2016-05-25T00:38:01.338Z,74.28
2016-05-25T00:38:59.716Z,74.19
2016-05-25T00:39:59.874Z,73.71
2016-05-25T00:40:59.627Z,73.9
2016-05-25T00:41:59.785Z,73.9
2016-05-25T00:42:59.601Z,73.9
2016-05-25T00:43:59.962Z,73.9
2016-05-25T00:44:59.590Z,73.9
2016-05-25T00:45:59.546Z,73.9
2016-05-25T00:46:59.471Z,73.9
2016-05-25T00:47:59.536Z,73.99
2016-05-25T00:48:59.648Z,74.09
2016-05-25T00:49:59.338Z,73.99
2016-05-25T00:50:59.465Z,73.9
2016-05-25T00:51:59.406Z,73.99
2016-05-25T00:52:59.409Z,74.19
2016-05-25T00:53:59.378Z,73.99
2016-05-25T00:54:59.286Z,73.71
2016-05-25T00:55:59.305Z,73.99
2016-05-25T00:56:59.370Z,74.19
2016-05-25T00:57:59.356Z,73.99
2016-05-25T00:58:59.706Z,74.09
2016-05-25T00:59:59.175Z,73.9
2016-05-25T01:00:59.412Z,74.09
2016-05-25T01:01:59.636Z,74.09
2016-05-25T01:02:59.198Z,73.99
2016-05-25T01:03:59.233Z,73.99
2016-05-25T01:04:59.360Z,73.8
2016-05-25T01:05:59.097Z,74.09
2016-05-25T01:06:59.021Z,73.9
2016-05-25T01:07:58.993Z,73.8
2016-05-25T01:08:59.027Z,74.09
2016-05-25T01:09:58.967Z,73.9
2016-05-25T01:10:59.033Z,74.09
2016-05-25T01:11:58.957Z,74.09
2016-05-25T01:12:59.163Z,73.9
2016-05-25T01:13:58.837Z,73.99
2016-05-25T01:14:58.980Z,73.8
2016-05-25T01:15:58.796Z,73.9
2016-05-25T01:16:58.782Z,73.9
2016-05-25T01:17:58.785Z,73.8
2016-05-25T01:18:59.960Z,73.99
2016-05-25T01:19:58.604Z,74.09
2016-05-25T01:20:58.575Z,74.09
2016-05-25T01:21:58.796Z,74.09
2016-05-25T01:22:59.018Z,73.99
2016-05-25T01:23:58.645Z,73.9
2016-05-25T01:24:58.601Z,73.99
2016-05-25T01:25:58.573Z,74.09
2016-05-25T01:26:58.544Z,73.99
2016-05-25T01:27:58.673Z,73.8
2016-05-25T01:28:58.487Z,73.9
2016-05-25T01:29:58.959Z,73.8
2016-05-25T01:30:59.180Z,73.9
2016-05-25T01:31:59.230Z,73.8
2016-05-25T01:32:58.389Z,73.99
2016-05-25T01:33:58.281Z,73.9
2016-05-25T01:34:58.394Z,73.99
2016-05-25T01:35:58.412Z,73.71
2016-05-25T01:36:58.821Z,73.9
2016-05-25T01:37:58.339Z,74.09
2016-05-25T01:38:58.419Z,73.99
2016-05-25T01:39:58.376Z,73.9
2016-05-25T01:40:58.223Z,74.38
2016-05-25T01:41:58.210Z,74.48
2016-05-25T01:42:58.306Z,73.99
2016-05-25T01:43:58.152Z,74.19
2016-05-25T01:44:58.155Z,74.09
2016-05-25T01:45:58.393Z,74.09
2016-05-25T01:46:58.566Z,74.19
2016-05-25T01:47:58.023Z,74.09
2016-05-25T01:48:58.041Z,74.28
2016-05-25T01:49:57.982Z,74.28
2016-05-25T01:50:58.093Z,74.09
2016-05-25T01:51:57.923Z,74.09
2016-05-25T01:52:58.068Z,74.28
2016-05-25T01:53:57.882Z,74.19
2016-05-25T01:54:57.885Z,74.28
2016-05-25T01:55:58.044Z,74.38
2016-05-25T01:56:57.922Z,73.8
2016-05-25T01:57:58.081Z,74.38
2016-05-25T01:58:57.942Z,73.9
2016-05-25T01:59:57.820Z,74.28
2016-05-25T02:00:57.761Z,74.38
2016-05-25T02:01:57.873Z,73.9
2016-05-25T02:02:57.735Z,74.09
2016-05-25T02:03:57.847Z,74.38
2016-05-25T02:04:57.569Z,74.09
2016-05-25T02:05:57.805Z,74.38
2016-05-25T02:06:57.667Z,73.99
2016-05-25T02:07:57.608Z,74.09
2016-05-25T02:08:57.563Z,74.19
2016-05-25T02:09:57.519Z,74.09
2016-05-25T02:10:57.381Z,74.57
2016-05-25T02:11:57.744Z,73.8
2016-05-25T02:12:57.450Z,74.19
2016-05-25T02:13:57.546Z,74.09
2016-05-25T02:14:57.721Z,74.09
2016-05-25T02:15:57.223Z,74.19
2016-05-25T02:16:57.476Z,74.57
2016-05-25T02:17:57.462Z,74.48
2016-05-25T02:18:57.418Z,74.48
2016-05-25T02:19:57.249Z,74.48
2016-05-25T02:20:57.268Z,74.66
2016-05-25T02:21:57.317Z,74.48
2016-05-25T02:22:57.351Z,74.38
2016-05-25T02:23:57.213Z,74.57
2016-05-25T02:24:57.060Z,74.19
2016-05-25T02:25:57.359Z,74.19
2016-05-25T02:26:57.299Z,74.19
2016-05-25T02:27:57.098Z,74.19
2016-05-25T02:28:57.070Z,74.19
2016-05-25T02:29:57.166Z,74.38
2016-05-25T02:30:57.059Z,74.48
2016-05-25T02:31:56.875Z,74.38
2016-05-25T02:32:57.034Z,74.48
2016-05-25T02:33:57.100Z,74.28
2016-05-25T02:34:56.931Z,74.48
2016-05-25T02:35:56.933Z,74.38
2016-05-25T02:36:57.014Z,74.19
2016-05-25T02:37:56.875Z,74.48
2016-05-25T02:38:56.878Z,74.38
2016-05-25T02:39:56.865Z,74.38
2016-05-25T02:40:56.869Z,74.38
2016-05-25T02:41:56.793Z,74.48
2016-05-25T02:42:56.874Z,74.38
2016-05-25T02:43:56.814Z,74.38
2016-05-25T02:44:56.676Z,74.19
2016-05-25T02:45:56.694Z,74.57
2016-05-25T02:46:56.775Z,74.57
2016-05-25T02:47:56.762Z,74.48
2016-05-25T02:48:56.624Z,74.48
2016-05-25T02:49:56.548Z,74.48
2016-05-25T02:50:56.738Z,74.57
2016-05-25T02:51:56.742Z,74.38
2016-05-25T02:52:56.556Z,74.48
2016-05-25T02:53:56.310Z,74.57
2016-05-25T02:54:56.468Z,74.57
2016-05-25T02:55:56.440Z,74.48
2016-05-25T02:56:56.599Z,74.48
2016-05-25T02:57:56.414Z,74.66
2016-05-25T02:58:56.370Z,74.66
2016-05-25T02:59:56.356Z,74.57
2016-05-25T03:00:56.562Z,74.66
2016-05-25T03:01:56.909Z,74.28
2016-05-25T03:02:56.631Z,74.28
2016-05-25T03:03:56.836Z,74.38
2016-05-25T03:04:56.230Z,74.38
2016-05-25T03:05:56.216Z,74.38
2016-05-25T03:06:56.767Z,74.38
2016-05-25T03:07:56.738Z,74.28
2016-05-25T03:08:56.178Z,74.38
2016-05-25T03:09:56.274Z,74.48
2016-05-25T03:10:56.074Z,74.48
2016-05-25T03:11:56.044Z,74.48
2016-05-25T03:12:56.017Z,74.19
2016-05-25T03:13:56.863Z,74.28
2016-05-25T03:14:56.632Z,74.28
2016-05-25T03:15:55.977Z,74.28
2016-05-25T03:16:55.808Z,74.19
2016-05-25T03:17:55.905Z,74.38
2016-05-25T03:18:56.064Z,74.38
2016-05-25T03:19:56.035Z,74.38
2016-05-25T03:20:55.944Z,74.19
2016-05-25T03:21:55.838Z,74.38
2016-05-25T03:22:55.810Z,74.19
2016-05-25T03:23:55.984Z,74.38
2016-05-25T03:24:55.768Z,74.28
2016-05-25T03:25:55.724Z,74.38
2016-05-25T03:26:55.680Z,74.28
2016-05-25T03:27:55.667Z,74.38
2016-05-25T03:28:55.779Z,74.19
2016-05-25T03:29:55.640Z,74.19
2016-05-25T03:30:55.675Z,74.19
2016-05-25T03:31:55.771Z,74.19
2016-05-25T03:32:56.164Z,74.19
2016-05-25T03:33:56.104Z,74.38
2016-05-25T03:34:55.529Z,74.19
2016-05-25T03:35:55.516Z,74.19
2016-05-25T03:36:55.503Z,74.38
2016-05-25T03:37:55.475Z,74.38
2016-05-25T03:38:55.992Z,74.19
2016-05-25T03:39:55.605Z,74.19
2016-05-25T03:40:55.858Z,74.28
2016-05-25T03:41:55.235Z,74.38
2016-05-25T03:42:55.347Z,74.28
2016-05-25T03:45:32.199Z,74.48
2016-05-25T03:46:18.483Z,74.38
2016-05-25T03:47:18.689Z,74.38
2016-05-25T03:48:18.239Z,74.48
2016-05-25T03:49:18.929Z,74.28
2016-05-25T03:50:19.041Z,74.19
2016-05-25T03:51:18.309Z,74.48
2016-05-25T03:52:18.812Z,74.38
2016-05-25T03:53:18.471Z,74.28
2016-05-25T03:54:18.301Z,74.28
2016-05-25T03:55:18.211Z,74.28
2016-05-25T03:56:18.198Z,74.28
2016-05-25T03:57:18.154Z,74.19
2016-05-25T03:58:18.141Z,74.38
2016-05-25T03:59:18.379Z,74.28
2016-05-25T04:00:18.084Z,74.19
2016-05-25T04:01:18.133Z,74.28
2016-05-25T04:02:18.090Z,74.28
2016-05-25T04:03:18.920Z,74.38
2016-05-25T04:04:17.985Z,74.19
2016-05-25T04:05:17.957Z,74.19
2016-05-25T04:06:17.818Z,74.28
2016-05-25T04:07:17.961Z,74.38
2016-05-25T04:08:17.918Z,74.28
2016-05-25T04:09:17.889Z,74.19
2016-05-25T04:10:17.861Z,74.28
2016-05-25T04:11:17.831Z,74.28
2016-05-25T04:12:17.803Z,74.28
2016-05-25T04:13:18.119Z,74.19
2016-05-25T04:14:17.747Z,74.48
2016-05-25T04:15:17.905Z,74.38
2016-05-25T04:16:17.705Z,74.48
2016-05-25T04:17:17.722Z,74.28
2016-05-25T04:18:17.554Z,74.57
2016-05-25T04:19:17.720Z,74.76
2016-05-25T04:20:17.653Z,74.48
2016-05-25T04:21:17.679Z,74.57
2016-05-25T04:22:17.691Z,74.48
2016-05-25T04:23:17.670Z,74.28
2016-05-25T04:24:17.743Z,74.48
2016-05-25T04:25:17.912Z,74.76
2016-05-25T04:26:17.626Z,74.28
2016-05-25T04:27:17.652Z,74.48
2016-05-25T04:28:17.929Z,74.76
2016-05-25T04:30:17.425Z,74.28
2016-05-25T04:31:17.556Z,74.76
2016-05-25T04:32:17.577Z,74.57
2016-05-25T04:33:17.192Z,74.57
2016-05-25T04:34:17.462Z,74.66
2016-05-25T04:35:17.434Z,74.57
2016-05-25T04:36:17.423Z,74.57
2016-05-25T04:37:17.411Z,74.48
2016-05-25T04:38:17.400Z,74.66
2016-05-25T04:39:17.372Z,74.57
2016-05-25T04:40:17.342Z,74.57
2016-05-25T04:41:17.331Z,74.57
2016-05-25T04:42:17.271Z,74.57
2016-05-25T04:43:17.961Z,74.57
2016-05-25T04:44:17.262Z,74.57
2016-05-25T04:45:17.232Z,74.48
2016-05-25T04:46:17.564Z,74.28
2016-05-25T04:47:17.192Z,74.09
2016-05-25T04:48:17.131Z,74.19
2016-05-25T04:49:17.134Z,74.48
2016-05-25T04:50:17.215Z,74.28
2016-05-25T04:51:16.920Z,74.48
2016-05-25T04:52:17.064Z,74.48
2016-05-25T04:53:17.003Z,74.48
2016-05-25T04:54:17.007Z,74.38
2016-05-25T04:55:17.322Z,74.48
2016-05-25T04:56:16.965Z,74.38
2016-05-25T04:57:16.936Z,74.09
2016-05-25T04:58:16.752Z,74.28
2016-05-25T04:59:16.755Z,74.48
2016-05-25T05:00:17.008Z,74.48
2016-05-25T05:01:16.979Z,74.38
2016-05-25T05:02:16.638Z,74.48
2016-05-25T05:03:16.813Z,74.48
2016-05-25T05:04:16.783Z,74.28
2016-05-25T05:05:16.755Z,74.48
2016-05-25T05:06:16.929Z,74.38
2016-05-25T05:07:16.666Z,74.48
2016-05-25T05:08:16.919Z,74.48
2016-05-25T05:10:16.878Z,74.38
2016-05-25T05:11:16.599Z,74.48
2016-05-25T05:12:16.602Z,74.48
2016-05-25T05:13:16.573Z,74.38
2016-05-25T05:14:16.545Z,74.48
2016-05-25T05:15:16.485Z,74.28
2016-05-25T05:16:16.504Z,74.48
2016-05-25T05:17:17.209Z,74.38
2016-05-25T05:18:16.415Z,74.38
2016-05-25T05:19:16.417Z,74.19
2016-05-25T05:20:16.515Z,74.19
2016-05-25T05:21:16.658Z,74.19
2016-05-25T05:22:16.723Z,74.19
2016-05-25T05:23:16.334Z,74.19
2016-05-25T05:24:16.322Z,74.38
2016-05-25T05:25:16.122Z,74.19
2016-05-25T05:26:16.328Z,74.57
2016-05-25T05:27:16.236Z,74.38
2016-05-25T05:28:16.223Z,74.38
2016-05-25T05:29:16.507Z,74.57
2016-05-25T05:30:16.041Z,74.19
2016-05-25T05:31:16.325Z,74.09
2016-05-25T05:32:16.578Z,74.38
2016-05-25T05:33:16.190Z,74.28
2016-05-25T05:34:16.177Z,74.09
2016-05-25T05:35:16.508Z,73.99
2016-05-25T05:36:16.042Z,74.38
2016-05-25T05:37:16.060Z,74.28
2016-05-25T05:38:16.000Z,74.38
2016-05-25T05:39:15.956Z,74.38
2016-05-25T05:40:15.943Z,74.48
2016-05-25T05:41:15.946Z,74.38
2016-05-25T05:42:15.885Z,74.38
2016-05-25T05:43:15.842Z,74.57
2016-05-25T05:44:15.859Z,74.38
2016-05-25T05:45:15.863Z,74.48
2016-05-25T05:46:15.787Z,74.48
2016-05-25T05:47:16.071Z,74.38
2016-05-25T05:48:15.731Z,74.48
2016-05-25T05:49:15.717Z,74.38
2016-05-25T05:50:15.736Z,74.38
2016-05-25T05:51:15.926Z,74.38
2016-05-25T05:52:15.834Z,74.38
2016-05-25T05:53:15.634Z,74.38
2016-05-25T05:54:15.621Z,74.19
2016-05-25T05:55:15.593Z,74.09
2016-05-25T05:56:15.923Z,74.38
2016-05-25T05:57:15.911Z,74.19
2016-05-25T05:58:16.008Z,74.48
2016-05-25T05:59:15.744Z,74.09
2016-05-25T06:00:15.497Z,74.19
2016-05-25T06:01:15.858Z,74.48
2016-05-25T06:02:15.424Z,74.48
2016-05-25T06:03:15.411Z,74.57
2016-05-25T06:04:15.366Z,74.57
2016-05-25T06:05:15.166Z,74.66
2016-05-25T06:06:15.185Z,74.57
2016-05-25T06:07:15.312Z,74.57
2016-05-25T06:08:15.456Z,74.48
2016-05-25T06:09:15.396Z,73.99
2016-05-25T06:10:15.274Z,73.99
2016-05-25T06:11:15.652Z,74.38
2016-05-25T06:12:15.232Z,74.57
2016-05-25T06:13:15.188Z,74.76
2016-05-25T06:14:15.112Z,74.76
2016-05-25T06:15:15.084Z,74.09
2016-05-25T06:16:15.071Z,74.76
2016-05-25T06:17:15.089Z,74.38
2016-05-25T06:18:15.030Z,74.28
2016-05-25T06:19:15.251Z,74.38
2016-05-25T06:20:15.003Z,74.57
2016-05-25T06:21:15.132Z,74.28
2016-05-25T06:22:14.993Z,74.57
2016-05-25T06:23:14.965Z,74.57
2016-05-25T06:24:15.515Z,74.38
2016-05-25T06:25:14.970Z,74.76
2016-05-25T06:26:15.208Z,74.48
2016-05-25T06:27:14.850Z,74.48
2016-05-25T06:28:15.072Z,74.38
2016-05-25T06:29:14.918Z,74.28
2016-05-25T06:30:14.780Z,74.19
2016-05-25T06:31:14.596Z,74.38
2016-05-25T06:32:15.302Z,74.28
2016-05-25T06:33:14.711Z,74.38
2016-05-25T06:34:14.714Z,74.19
2016-05-25T06:35:14.685Z,74.57
2016-05-25T06:36:14.625Z,74.19
2016-05-25T06:37:14.847Z,74.48
2016-05-25T06:38:14.568Z,74.19
2016-05-25T06:39:14.524Z,74.19
2016-05-25T06:40:14.745Z,74.19
2016-05-25T06:41:14.561Z,74.48
2016-05-25T06:42:14.844Z,74.57
2016-05-25T06:43:14.454Z,74.38
2016-05-25T06:44:14.457Z,74.38
2016-05-25T06:45:14.443Z,74.57
2016-05-25T06:46:14.415Z,74.85
2016-05-25T06:47:14.448Z,74.85
2016-05-25T06:48:14.685Z,74.38
2016-05-25T06:49:14.720Z,74.09
2016-05-25T06:50:14.347Z,74.48
2016-05-25T06:51:14.507Z,74.57
2016-05-25T06:52:14.212Z,74.57
2016-05-25T06:53:14.214Z,74.57
2016-05-25T06:54:14.202Z,74.66
2016-05-25T06:55:14.204Z,74.57
2016-05-25T06:56:14.161Z,74.57
2016-05-25T06:57:13.976Z,74.66
2016-05-25T06:58:14.134Z,74.48
2016-05-25T06:59:14.403Z,74.48
2016-05-25T07:00:14.061Z,74.28
2016-05-25T07:01:14.064Z,74.28
2016-05-25T07:02:14.255Z,74.57
2016-05-25T07:03:14.148Z,74.38
2016-05-25T07:04:14.072Z,74.38
2016-05-25T07:05:13.966Z,74.38
2016-05-25T07:06:13.891Z,74.48
2016-05-25T07:07:13.908Z,74.38
2016-05-25T07:08:13.880Z,74.48
2016-05-25T07:09:14.321Z,74.48
2016-05-25T07:10:14.385Z,74.38
2016-05-25T07:11:13.826Z,74.38
2016-05-25T07:12:14.141Z,74.28
2016-05-25T07:13:13.752Z,74.19
2016-05-25T07:14:13.740Z,74.28
2016-05-25T07:15:13.727Z,74.48
2016-05-25T07:16:13.682Z,74.28
2016-05-25T07:17:13.779Z,74.28
2016-05-25T07:18:13.610Z,74.28
2016-05-25T07:19:13.723Z,74.48
2016-05-25T07:20:13.818Z,74.28
2016-05-25T07:21:13.571Z,74.28
2016-05-25T07:22:13.668Z,74.38
2016-05-25T07:23:13.546Z,74.48
2016-05-25T07:24:13.486Z,74.38
2016-05-25T07:25:13.473Z,74.38
2016-05-25T07:26:13.428Z,74.48
2016-05-25T07:27:13.415Z,74.48
2016-05-25T07:28:13.434Z,74.38
2016-05-25T07:29:13.577Z,74.28
2016-05-25T07:30:13.361Z,74.28
2016-05-25T07:31:13.380Z,74.38
2016-05-25T07:32:13.523Z,73.99
2016-05-25T07:33:13.306Z,74.28
2016-05-25T07:34:13.263Z,74.38
2016-05-25T07:35:13.234Z,74.19
2016-05-25T07:36:13.189Z,74.19
2016-05-25T07:37:13.240Z,74.19
2016-05-25T07:38:13.289Z,74.19
2016-05-25T07:39:13.558Z,74.19
2016-05-25T07:40:13.091Z,74.28
2016-05-25T07:41:13.125Z,74.22
2016-05-25T07:42:13.565Z,74.32
2016-05-25T07:43:13.052Z,74.66
2016-05-25T07:44:13.149Z,74.7
2016-05-25T07:45:13.027Z,74.61
2016-05-25T07:46:12.966Z,74.22
2016-05-25T07:47:13.532Z,74.41
2016-05-25T07:48:12.926Z,74.51
2016-05-25T07:49:12.771Z,74.41
2016-05-25T07:50:12.900Z,74.51
2016-05-25T07:51:12.887Z,74.22
2016-05-25T07:52:13.890Z,74.41
2016-05-25T07:53:12.829Z,74.51
2016-05-25T07:54:12.801Z,74.51
2016-05-25T07:55:13.007Z,74.41
2016-05-25T07:56:12.791Z,74.51
2016-05-25T07:57:13.996Z,74.22
2016-05-25T07:58:12.608Z,74.41
2016-05-25T07:59:12.706Z,74.51
2016-05-25T08:00:12.879Z,73.94
2016-05-25T08:01:12.616Z,73.84
2016-05-25T08:02:13.931Z,74.22
2016-05-25T08:03:12.669Z,73.84
2016-05-25T08:04:12.859Z,73.17
2016-05-25T08:05:12.909Z,73.46
2016-05-25T08:06:12.599Z,73.75
2016-05-25T08:07:12.680Z,73.4
2016-05-25T08:08:12.480Z,73.3
2016-05-25T08:09:12.653Z,73.21
2016-05-25T08:10:12.500Z,73.3
2016-05-25T08:11:12.425Z,72.83
2016-05-25T08:12:12.553Z,73.11
2016-05-25T08:13:12.336Z,73.21
2016-05-25T08:14:12.354Z,72.63
2016-05-25T08:15:12.310Z,72.44
2016-05-25T08:16:12.313Z,72.54
2016-05-25T08:17:12.238Z,72.44
2016-05-25T08:18:12.491Z,73.02
2016-05-25T08:19:12.259Z,73.02
2016-05-25T08:20:12.152Z,72.83
2016-05-25T08:21:12.421Z,73.3
2016-05-25T08:22:12.626Z,72.73
2016-05-25T08:23:12.145Z,73.4
2016-05-25T08:24:12.101Z,73.59
2016-05-25T08:25:12.087Z,73.4
2016-05-25T08:26:11.918Z,73.21
2016-05-25T08:27:13.623Z,73.5
2016-05-25T08:28:12.158Z,73.3
2016-05-25T08:29:11.957Z,73.4
2016-05-25T08:30:12.117Z,73.3
2016-05-25T08:31:12.041Z,73.79
2016-05-25T08:32:13.778Z,73.4
2016-05-25T08:33:11.922Z,73.5
2016-05-25T08:34:12.534Z,73.79
2016-05-25T08:35:12.161Z,73.69
2016-05-25T08:36:11.992Z,73.97
2016-05-25T08:37:11.791Z,73.5
2016-05-25T08:38:11.982Z,73.5
2016-05-25T08:39:11.922Z,73.5
2016-05-25T08:40:11.925Z,73.79
2016-05-25T08:41:11.739Z,73.5
2016-05-25T08:42:12.430Z,73.69
2016-05-25T08:43:11.652Z,73.69
2016-05-25T08:44:11.654Z,73.4
2016-05-25T08:45:11.516Z,73.3
2016-05-25T08:46:11.613Z,73.21
2016-05-25T08:47:13.771Z,73.4
2016-05-25T08:48:11.555Z,73.4
2016-05-25T08:49:11.949Z,73.4
2016-05-25T08:50:11.498Z,73.5
2016-05-25T08:51:11.876Z,73.5
2016-05-25T08:52:11.582Z,73.79
2016-05-25T08:53:11.694Z,73.5
2016-05-25T08:54:11.915Z,73.5
2016-05-25T08:55:11.574Z,73.88
2016-05-25T08:56:11.374Z,73.5
2016-05-25T08:57:11.345Z,73.05
2016-05-25T08:58:11.317Z,72.73
2016-05-25T08:59:11.445Z,72.83
2016-05-25T09:00:11.432Z,73.05
2016-05-25T09:01:11.247Z,73.21
2016-05-25T09:02:12.656Z,73.02
2016-05-25T09:03:12.253Z,72.73
2016-05-25T09:04:11.520Z,73.21
2016-05-25T09:05:11.163Z,73.15
2016-05-25T09:06:11.182Z,73.59
2016-05-25T09:07:11.169Z,73.69
2016-05-25T09:08:11.234Z,73.05
2016-05-25T09:09:11.065Z,73.15
2016-05-25T09:10:11.067Z,73.24
2016-05-25T09:11:10.992Z,73.34
2016-05-25T09:12:10.855Z,73.15
2016-05-25T09:13:11.295Z,72.96
2016-05-25T09:14:11.016Z,72.96
2016-05-25T09:15:10.894Z,73.15
2016-05-25T09:16:10.944Z,73.05
2016-05-25T09:17:11.759Z,73.24
2016-05-25T09:18:10.885Z,73.05
2016-05-25T09:19:11.046Z,72.86
2016-05-25T09:20:10.923Z,72.77
2016-05-25T09:21:10.832Z,72.86
2016-05-25T09:22:10.772Z,73.15
2016-05-25T09:23:10.760Z,72.96
2016-05-25T09:24:10.605Z,73.34
2016-05-25T09:25:10.687Z,73.15
2016-05-25T09:26:10.704Z,73.34
2016-05-25T09:27:10.879Z,72.48
2016-05-25T09:28:10.662Z,72.48
2016-05-25T09:29:10.618Z,72.77
2016-05-25T09:30:10.606Z,72.58
2016-05-25T09:31:10.671Z,72.48
2016-05-25T09:32:11.377Z,73.15
2016-05-25T09:33:11.426Z,72.48
2016-05-25T09:34:10.523Z,72.77
2016-05-25T09:35:10.589Z,72.67
2016-05-25T09:36:10.544Z,72.58
2016-05-25T09:37:10.390Z,72.48
2016-05-25T09:38:10.439Z,72.38
2016-05-25T09:39:10.256Z,72.67
2016-05-25T09:40:10.414Z,72.38
2016-05-25T09:41:10.650Z,72.48
2016-05-25T09:42:10.311Z,72.29
2016-05-25T09:43:10.345Z,72.48
2016-05-25T09:44:10.456Z,72.58
2016-05-25T09:45:10.286Z,72.58
2016-05-25T09:46:10.430Z,72.96
2016-05-25T09:47:10.636Z,72.29
2016-05-25T09:48:10.217Z,72.58
2016-05-25T09:49:10.126Z,72.77
2016-05-25T09:50:10.332Z,72.86
2016-05-25T09:51:10.303Z,72.96
2016-05-25T09:52:10.149Z,72.77
2016-05-25T09:53:11.183Z,72.86
2016-05-25T09:54:10.093Z,72.77
2016-05-25T09:55:09.985Z,72.86
2016-05-25T09:56:09.879Z,72.77
2016-05-25T09:57:09.803Z,72.77
2016-05-25T09:58:09.947Z,72.67
2016-05-25T09:59:09.949Z,72.58
2016-05-25T10:00:10.170Z,72.48
2016-05-25T10:01:10.329Z,72.58
2016-05-25T10:02:10.848Z,72.09
2016-05-25T10:03:10.351Z,72
2016-05-25T10:04:10.181Z,72.09
2016-05-25T10:05:09.825Z,71.94
2016-05-25T10:06:09.797Z,72.03
2016-05-25T10:07:09.595Z,72.23
2016-05-25T10:08:09.958Z,72.23
2016-05-25T10:09:09.742Z,72.03
2016-05-25T10:10:09.651Z,72.23
2016-05-25T10:11:09.669Z,71.75
2016-05-25T10:12:10.078Z,71.94
2016-05-25T10:13:09.612Z,72.03
2016-05-25T10:14:09.614Z,72.13
2016-05-25T10:15:09.571Z,72.13
2016-05-25T10:16:09.511Z,71.94
2016-05-25T10:17:09.530Z,72.32
2016-05-25T10:18:09.501Z,72.03
2016-05-25T10:19:09.488Z,71.56
2016-05-25T10:20:11.162Z,71.66
2016-05-25T10:21:09.508Z,71.46
2016-05-25T10:22:09.386Z,71.84
2016-05-25T10:23:09.514Z,71.56
2016-05-25T10:24:09.970Z,71.66
2016-05-25T10:25:10.442Z,71.59
2016-05-25T10:26:09.319Z,71.78
2016-05-25T10:27:09.399Z,71.59
2016-05-25T10:28:09.794Z,71.59
2016-05-25T10:29:09.327Z,71.4
2016-05-25T10:30:09.220Z,71.78
2016-05-25T10:31:09.207Z,71.59
2016-05-25T10:32:09.179Z,71.69
2016-05-25T10:33:09.198Z,71.59
2016-05-25T10:34:09.247Z,71.78
2016-05-25T10:35:09.093Z,71.78
2016-05-25T10:36:09.112Z,71.98
2016-05-25T10:37:09.114Z,71.78
2016-05-25T10:38:09.086Z,71.98
2016-05-25T10:39:09.026Z,71.98
2016-05-25T10:40:09.013Z,71.78
2016-05-25T10:41:09.031Z,71.98
2016-05-25T10:42:08.940Z,71.59
2016-05-25T10:43:09.131Z,71.98
2016-05-25T10:44:09.289Z,71.98
2016-05-25T10:45:22.635Z,71.59
2016-05-25T10:46:09.529Z,71.69
2016-05-25T10:47:08.844Z,71.78
2016-05-25T10:48:08.894Z,71.88
2016-05-25T10:49:08.772Z,71.78
2016-05-25T10:50:08.774Z,71.78
2016-05-25T10:51:08.777Z,71.59
2016-05-25T10:52:08.749Z,71.69
2016-05-25T10:53:08.752Z,71.78
2016-05-25T10:55:09.335Z,71.69
2016-05-25T10:56:11.572Z,72.07
2016-05-25T10:57:09.262Z,71.59
2016-05-25T10:58:08.702Z,71.78
2016-05-25T10:59:08.907Z,71.5
2016-05-25T11:00:08.551Z,71.78
2016-05-25T11:01:11.616Z,71.88
2016-05-25T11:02:11.634Z,71.5
2016-05-25T11:03:08.951Z,71.31
2016-05-25T11:04:08.281Z,71.59
2016-05-25T11:05:08.924Z,71.02
2016-05-25T11:06:08.615Z,71.21
2016-05-25T11:07:08.570Z,71.11
2016-05-25T11:08:08.229Z,70.92
2016-05-25T11:09:08.512Z,71.11
2016-05-25T11:10:08.406Z,71.31
2016-05-25T11:11:08.362Z,71.21
2016-05-25T11:12:09.568Z,71.11
2016-05-25T11:13:08.430Z,71.31
2016-05-25T11:14:08.244Z,71.21
2016-05-25T11:15:08.638Z,70.92
2016-05-25T11:16:08.547Z,70.83
2016-05-25T11:17:09.019Z,71.34
2016-05-25T11:18:07.975Z,71.11
2016-05-25T11:19:08.181Z,71.15
2016-05-25T11:20:08.230Z,70.86
2016-05-25T11:21:08.060Z,70.67
2016-05-25T11:22:08.142Z,70.57
2016-05-25T11:23:08.082Z,70.19
2016-05-25T11:24:08.100Z,70.38
2016-05-25T11:25:08.790Z,70.38
2016-05-25T11:26:07.966Z,70.09
2016-05-25T11:27:08.686Z,70
2016-05-25T11:28:07.954Z,70.09
2016-05-25T11:29:07.926Z,70.29
2016-05-25T11:30:08.507Z,70.09
2016-05-25T11:31:08.665Z,69.65
2016-05-25T11:32:08.340Z,69.65
2016-05-25T11:33:07.874Z,69.84
2016-05-25T11:34:07.815Z,69.84
2016-05-25T11:35:08.208Z,69.46
2016-05-25T11:36:07.773Z,69.65
2016-05-25T11:37:09.275Z,69.65
2016-05-25T11:38:07.748Z,70.42
2016-05-25T11:39:07.812Z,70.03
2016-05-25T11:40:07.737Z,70.13
2016-05-25T11:41:07.865Z,70.03
2016-05-25T11:42:07.648Z,70
2016-05-25T11:43:07.776Z,70.32
2016-05-25T11:44:07.716Z,70.03
2016-05-25T11:45:08.359Z,70.09
2016-05-25T11:46:07.909Z,70.19
2016-05-25T11:47:07.694Z,70.38
2016-05-25T11:48:07.337Z,70.38
2016-05-25T11:49:07.464Z,70.29
2016-05-25T11:50:07.405Z,70.38
2016-05-25T11:51:07.782Z,70.29
2016-05-25T11:52:08.332Z,70.38
2016-05-25T11:53:07.631Z,69.81
2016-05-25T11:54:07.383Z,70.23
2016-05-25T11:55:07.215Z,70.09
2016-05-25T11:56:07.858Z,70.32
2016-05-25T11:57:08.141Z,70.09
2016-05-25T11:58:07.348Z,70.09
2016-05-25T11:59:07.351Z,70.51
2016-05-25T12:00:10.354Z,70.09
2016-05-25T12:01:07.262Z,70.23
2016-05-25T12:02:07.390Z,70.32
2016-05-25T12:03:07.283Z,70.23
2016-05-25T12:04:07.005Z,70.32
2016-05-25T12:05:07.132Z,70.23
2016-05-25T12:06:06.947Z,70.13
2016-05-25T12:07:07.731Z,70.23
2016-05-25T12:08:07.453Z,69.56
2016-05-25T12:09:07.018Z,69.56
2016-05-25T12:10:07.224Z,70.13
2016-05-25T12:11:07.008Z,70.32
2016-05-25T12:12:06.994Z,70.32
2016-05-25T12:13:07.014Z,70.32
2016-05-25T12:14:07.078Z,70.42
2016-05-25T12:15:06.878Z,69.74
2016-05-25T12:16:06.927Z,69.65
2016-05-25T12:17:08.461Z,69.56
2016-05-25T12:18:07.386Z,69.84
2016-05-25T12:19:06.811Z,69.84
2016-05-25T12:20:06.751Z,69.07
2016-05-25T12:21:06.878Z,69.07
2016-05-25T12:22:09.241Z,69.11
2016-05-25T12:23:07.150Z,69.01
2016-05-25T12:24:06.730Z,68.63
2016-05-25T12:25:06.780Z,68.15
2016-05-25T12:26:06.735Z,68.82
2016-05-25T12:27:07.754Z,68.82
2016-05-25T12:28:06.725Z,68.44
2016-05-25T12:29:06.619Z,69.2
2016-05-25T12:30:06.637Z,69.3
2016-05-25T12:31:07.812Z,69.01
2016-05-25T12:32:07.032Z,69.3
2016-05-25T12:33:06.582Z,69.01
2016-05-25T12:34:06.491Z,69.01
2016-05-25T12:35:06.463Z,69.26
2016-05-25T12:36:06.637Z,69.4
2016-05-25T12:37:06.421Z,70.03
2016-05-25T12:38:06.518Z,69.65
2016-05-25T12:39:06.646Z,69.93
2016-05-25T12:40:06.711Z,70.07
2016-05-25T12:41:06.401Z,69.56
2016-05-25T12:42:06.387Z,69.36
2016-05-25T12:43:07.344Z,69.49
2016-05-25T12:44:06.284Z,69.97
2016-05-25T12:45:06.303Z,69.87
2016-05-25T12:46:06.242Z,68.91
2016-05-25T12:47:07.245Z,69.01
2016-05-25T12:48:07.061Z,69.11
2016-05-25T12:49:06.517Z,68.82
2016-05-25T12:50:06.348Z,68.53
2016-05-25T12:51:07.318Z,68.24
2016-05-25T12:52:06.008Z,67.41
2016-05-25T12:53:06.324Z,67.41
2016-05-25T12:54:06.624Z,66.87
2016-05-25T12:55:07.439Z,66.97
2016-05-25T12:56:06.207Z,66.97
2016-05-25T12:57:08.990Z,67.07
2016-05-25T12:58:06.056Z,67.35
2016-05-25T12:59:06.074Z,67.54